Time;durP1;ratioP1;P1;durP2;ratioP2;P2;SDS_P1;SDS_P2;PMS_P1;PMS_P2;Temp;Humidity;BMP_temperature;BMP_pressure;BME280_temperature;BME280_humidity;BME280_pressure;Samples;Min_cycle;Max_cycle;Signal;HPM_P1;HPM_P2
2021/12/26 00:01:09;;;;;;;14.20;9.70;;;-3.60;99.90;;;;;;5077235;28;20464;-68
2021/12/26 00:03:38;;;;;;;15.43;10.70;;;-3.70;99.90;;;;;;5076381;28;20526;-69
2021/12/26 00:06:11;;;;;;;20.23;11.53;;;-3.70;99.90;;;;;;5075900;28;20519;-69
2021/12/26 00:08:39;;;;;;;19.23;11.47;;;-3.70;99.90;;;;;;5075635;28;20499;-69
2021/12/26 00:11:09;;;;;;;13.80;10.60;;;-3.70;99.90;;;;;;5075979;28;20539;-69
2021/12/26 00:13:39;;;;;;;19.20;11.60;;;-3.70;99.90;;;;;;5075970;28;20478;-70
2021/12/26 00:16:08;;;;;;;17.80;11.57;;;-3.70;99.90;;;;;;5075849;28;20458;-69
2021/12/26 00:18:41;;;;;;;15.30;10.80;;;-3.80;99.90;;;;;;5075637;28;20473;-69
2021/12/26 00:21:08;;;;;;;19.20;11.90;;;-3.80;99.90;;;;;;5075789;28;20453;-69
2021/12/26 00:23:35;;;;;;;19.83;11.93;;;-3.80;99.90;;;;;;5075255;28;20984;-69
2021/12/26 00:26:01;;;;;;;19.87;13.30;;;-3.80;99.90;;;;;;5075580;28;20497;-71
2021/12/26 00:28:28;;;;;;;14.53;11.07;;;-3.80;99.90;;;;;;5075767;28;20450;-70
2021/12/26 00:30:55;;;;;;;18.07;11.80;;;-3.80;99.90;;;;;;5075720;28;20458;-70
2021/12/26 00:33:23;;;;;;;17.00;11.20;;;-3.80;99.90;;;;;;5075502;28;20489;-68
2021/12/26 00:35:51;;;;;;;21.50;13.20;;;-3.80;99.90;;;;;;5075149;28;20465;-69
2021/12/26 00:38:18;;;;;;;18.27;11.67;;;-3.80;99.90;;;;;;5075565;28;20559;-71
2021/12/26 00:40:46;;;;;;;19.90;12.40;;;-3.80;99.90;;;;;;5075460;28;20831;-68
2021/12/26 00:43:16;;;;;;;19.67;12.40;;;-3.90;99.90;;;;;;5075131;28;20991;-68
2021/12/26 00:45:44;;;;;;;24.10;13.00;;;-3.90;99.90;;;;;;5075530;28;20462;-68
2021/12/26 00:48:11;;;;;;;20.67;12.97;;;-3.90;99.90;;;;;;5075401;28;20803;-68
2021/12/26 00:50:40;;;;;;;17.87;12.87;;;-3.90;99.90;;;;;;5075629;28;20736;-68
2021/12/26 00:53:09;;;;;;;21.83;12.67;;;-3.90;99.90;;;;;;5075542;28;20832;-68
2021/12/26 00:55:36;;;;;;;17.53;11.93;;;-3.90;99.90;;;;;;5075142;28;20454;-69
2021/12/26 00:58:03;;;;;;;23.13;13.27;;;-3.90;99.90;;;;;;5075038;28;20489;-70
2021/12/26 01:00:32;;;;;;;20.13;13.43;;;-3.90;99.90;;;;;;5074983;28;20461;-69
2021/12/26 01:03:01;;;;;;;30.40;14.90;;;-3.90;99.90;;;;;;5075186;28;20461;-69
2021/12/26 01:05:28;;;;;;;22.17;14.37;;;-4.00;99.90;;;;;;5075561;28;20456;-68
2021/12/26 01:07:58;;;;;;;29.33;14.63;;;-4.00;99.90;;;;;;5083958;28;20465;-68
2021/12/26 01:10:32;;;;;;;24.53;15.20;;;-4.00;99.90;;;;;;5084256;28;20541;-69
2021/12/26 01:13:09;;;;;;;17.20;12.33;;;-4.00;99.90;;;;;;5076146;28;20527;-69
2021/12/26 01:15:38;;;;;;;24.20;14.10;;;-4.00;99.90;;;;;;5076596;28;20815;-70
2021/12/26 01:18:05;;;;;;;32.60;15.53;;;-4.00;99.90;;;;;;5076013;28;20883;-68
2021/12/26 01:20:44;;;;;;;23.13;13.00;;;-4.00;99.90;;;;;;5076040;28;20858;-69
2021/12/26 01:23:12;;;;;;;21.40;13.83;;;-4.00;99.90;;;;;;5075361;28;20455;-68
2021/12/26 01:25:42;;;;;;;22.73;14.90;;;-4.00;99.90;;;;;;5074656;28;20462;-70
2021/12/26 01:28:09;;;;;;;23.80;14.73;;;-4.00;99.90;;;;;;5074829;28;20482;-69
2021/12/26 01:30:39;;;;;;;23.93;15.57;;;-4.10;99.90;;;;;;5074665;28;20771;-69
2021/12/26 01:33:08;;;;;;;17.40;12.30;;;-4.10;99.90;;;;;;5074400;28;20493;-70
2021/12/26 01:35:36;;;;;;;20.87;12.20;;;-4.10;99.90;;;;;;5074643;28;20764;-68
2021/12/26 01:38:04;;;;;;;22.93;12.83;;;-4.10;99.90;;;;;;5074707;28;20458;-69
2021/12/26 01:40:34;;;;;;;21.53;14.57;;;-4.10;99.90;;;;;;5074502;28;20457;-69
2021/12/26 01:43:03;;;;;;;23.63;14.33;;;-4.10;99.90;;;;;;5074646;28;20442;-69
2021/12/26 01:45:30;;;;;;;24.13;14.27;;;-4.10;99.90;;;;;;5074253;28;20548;-69
2021/12/26 01:47:59;;;;;;;18.90;12.63;;;-4.20;99.90;;;;;;5074585;28;20815;-69
2021/12/26 01:50:25;;;;;;;18.13;12.27;;;-4.20;99.90;;;;;;5074488;28;20551;-69
2021/12/26 01:52:52;;;;;;;22.07;12.43;;;-4.20;99.90;;;;;;5075169;28;20454;-69
2021/12/26 01:55:25;;;;;;;18.83;11.67;;;-4.30;99.90;;;;;;5074428;28;20542;-69
2021/12/26 01:57:53;;;;;;;15.27;11.33;;;-4.30;99.90;;;;;;5073851;28;20533;-69
2021/12/26 02:00:23;;;;;;;18.87;10.97;;;-4.30;99.90;;;;;;5073990;28;20938;-69
2021/12/26 02:02:50;;;;;;;16.10;11.70;;;-4.40;99.90;;;;;;5074042;28;20835;-69
2021/12/26 02:05:17;;;;;;;16.43;11.37;;;-4.40;99.90;;;;;;5074049;28;20456;-69
2021/12/26 02:07:44;;;;;;;14.67;10.67;;;-4.40;99.90;;;;;;5074444;28;20458;-69
2021/12/26 02:10:11;;;;;;;15.70;10.47;;;-4.40;99.90;;;;;;5073970;28;20471;-69
2021/12/26 02:12:40;;;;;;;15.43;11.40;;;-4.40;99.90;;;;;;5074396;28;20517;-69
2021/12/26 02:15:07;;;;;;;16.53;10.67;;;-4.40;99.90;;;;;;5074137;28;20489;-69
2021/12/26 02:17:36;;;;;;;13.97;10.73;;;-4.40;99.90;;;;;;5074569;28;20456;-69
2021/12/26 02:20:23;;;;;;;13.67;11.00;;;-4.40;99.90;;;;;;5074069;28;21016;-70
2021/12/26 02:22:56;;;;;;;16.57;11.20;;;-4.40;99.90;;;;;;5074264;28;20468;-70
2021/12/26 02:25:32;;;;;;;12.87;10.10;;;-4.40;99.90;;;;;;5073823;28;20438;-69
2021/12/26 02:28:01;;;;;;;15.20;10.80;;;-4.40;99.90;;;;;;5073845;28;20507;-69
2021/12/26 02:30:28;;;;;;;16.00;11.60;;;-4.50;99.90;;;;;;5075447;28;20557;-69
2021/12/26 02:32:59;;;;;;;16.00;11.10;;;-4.60;99.90;;;;;;5077839;28;20467;-68
2021/12/26 02:35:28;;;;;;;13.23;11.30;;;-4.70;99.90;;;;;;5077852;28;20534;-69
2021/12/26 02:37:58;;;;;;;13.60;10.33;;;-4.70;99.90;;;;;;5078254;28;20457;-70
2021/12/26 02:40:28;;;;;;;18.90;11.17;;;-4.70;99.90;;;;;;5078929;28;20471;-69
2021/12/26 02:42:55;;;;;;;13.60;9.70;;;-4.70;99.90;;;;;;5079115;28;20460;-69
2021/12/26 02:45:24;;;;;;;17.30;11.20;;;-4.70;99.90;;;;;;5077898;28;20468;-69
2021/12/26 02:47:52;;;;;;;16.13;10.77;;;-4.80;99.90;;;;;;5077500;28;20469;-69
2021/12/26 02:50:20;;;;;;;16.27;11.50;;;-4.80;99.90;;;;;;5078804;28;20465;-69
2021/12/26 02:52:50;;;;;;;17.27;11.63;;;-4.80;99.90;;;;;;5078097;28;20461;-69
2021/12/26 02:55:18;;;;;;;18.20;11.40;;;-4.80;99.90;;;;;;5077123;28;20578;-69
2021/12/26 02:57:47;;;;;;;15.07;10.93;;;-4.70;99.90;;;;;;5077223;28;20458;-69
2021/12/26 03:00:19;;;;;;;19.23;13.00;;;-4.60;99.90;;;;;;5077399;28;20938;-69
2021/12/26 03:02:48;;;;;;;16.57;11.90;;;-4.60;99.90;;;;;;5076840;28;20891;-69
2021/12/26 03:05:16;;;;;;;17.60;12.20;;;-4.50;99.90;;;;;;5076797;28;20454;-69
2021/12/26 03:07:42;;;;;;;18.50;12.70;;;-4.50;99.90;;;;;;5077091;28;20458;-69
2021/12/26 03:10:21;;;;;;;15.17;12.03;;;-4.50;99.90;;;;;;5076918;28;20956;-69
2021/12/26 03:12:48;;;;;;;19.37;12.13;;;-4.50;99.90;;;;;;5078238;28;20553;-69
2021/12/26 03:15:15;;;;;;;19.47;13.43;;;-4.40;99.90;;;;;;5076782;28;20973;-69
2021/12/26 03:17:42;;;;;;;19.10;10.90;;;-4.40;99.90;;;;;;5077040;28;20462;-68
2021/12/26 03:20:09;;;;;;;18.10;12.57;;;-4.40;99.90;;;;;;5076764;28;20481;-69
2021/12/26 03:22:36;;;;;;;18.33;13.33;;;-4.40;99.90;;;;;;5076596;28;20458;-70
2021/12/26 03:25:03;;;;;;;18.70;12.47;;;-4.50;99.90;;;;;;5076667;28;20458;-69
2021/12/26 03:27:31;;;;;;;16.67;12.20;;;-4.40;99.90;;;;;;5076296;28;20498;-69
2021/12/26 03:29:58;;;;;;;18.33;11.60;;;-4.50;99.90;;;;;;5076840;28;20462;-70
2021/12/26 03:32:24;;;;;;;17.70;12.10;;;-4.50;99.90;;;;;;5076402;28;20465;-69
2021/12/26 03:34:52;;;;;;;17.80;12.53;;;-4.50;99.90;;;;;;5076575;28;20484;-69
2021/12/26 03:37:19;;;;;;;23.03;13.17;;;-4.50;99.90;;;;;;5076362;28;20454;-68
2021/12/26 03:39:46;;;;;;;22.03;14.33;;;-4.50;99.90;;;;;;5076513;28;20511;-69
2021/12/26 03:42:13;;;;;;;13.90;10.60;;;-4.50;99.90;;;;;;5076064;28;20458;-69
2021/12/26 03:44:41;;;;;;;18.83;12.83;;;-4.50;99.90;;;;;;5076285;28;20508;-69
2021/12/26 03:47:08;;;;;;;17.53;11.60;;;-4.50;99.90;;;;;;5076218;28;20464;-69
2021/12/26 03:49:35;;;;;;;23.47;12.97;;;-4.50;99.90;;;;;;5076325;28;20454;-69
2021/12/26 03:52:02;;;;;;;12.60;11.07;;;-4.50;99.90;;;;;;5076360;28;20466;-69
2021/12/26 03:54:28;;;;;;;20.87;12.77;;;-4.50;99.90;;;;;;5076445;28;20535;-69
2021/12/26 03:56:55;;;;;;;15.20;11.53;;;-4.50;99.90;;;;;;5076475;28;20520;-69
2021/12/26 03:59:22;;;;;;;16.00;11.00;;;-4.60;99.90;;;;;;5076147;28;20471;-69
2021/12/26 04:01:50;;;;;;;19.00;12.17;;;-4.60;99.90;;;;;;5076226;28;20470;-69
2021/12/26 04:04:16;;;;;;;16.10;11.73;;;-4.60;99.90;;;;;;5076151;28;20524;-69
2021/12/26 04:06:46;;;;;;;15.47;10.83;;;-4.60;99.90;;;;;;5076313;28;20511;-69
2021/12/26 04:09:16;;;;;;;15.93;10.10;;;-4.60;99.90;;;;;;5075990;28;20768;-69
2021/12/26 04:11:45;;;;;;;15.17;11.63;;;-4.60;99.90;;;;;;5075942;28;20458;-69
2021/12/26 04:14:12;;;;;;;20.70;13.20;;;-4.70;99.90;;;;;;5075912;28;20891;-69
2021/12/26 04:16:39;;;;;;;16.17;12.27;;;-4.60;99.90;;;;;;5075846;28;20469;-69
2021/12/26 04:19:07;;;;;;;18.77;11.73;;;-4.60;99.90;;;;;;5076014;28;20468;-69
2021/12/26 04:21:34;;;;;;;15.63;10.80;;;-4.60;99.90;;;;;;5075770;28;20826;-69
2021/12/26 04:24:01;;;;;;;17.60;10.73;;;-4.70;99.90;;;;;;5075955;28;20471;-69
2021/12/26 04:26:29;;;;;;;15.77;11.97;;;-4.70;99.90;;;;;;5075511;28;20941;-69
2021/12/26 04:28:56;;;;;;;17.13;11.60;;;-4.70;99.90;;;;;;5075916;28;20454;-69
2021/12/26 04:31:23;;;;;;;19.30;12.13;;;-4.70;99.90;;;;;;5075494;28;20821;-69
2021/12/26 04:33:49;;;;;;;16.53;12.07;;;-4.70;99.90;;;;;;5075444;28;20487;-69
2021/12/26 04:36:20;;;;;;;18.53;12.57;;;-4.70;99.90;;;;;;5075015;28;20953;-69
2021/12/26 04:38:47;;;;;;;15.80;11.93;;;-4.70;99.90;;;;;;5076270;28;20466;-69
2021/12/26 04:41:13;;;;;;;15.30;11.30;;;-4.70;99.90;;;;;;5075307;28;20458;-69
2021/12/26 04:43:40;;;;;;;19.83;13.30;;;-4.80;99.90;;;;;;5075292;28;20782;-69
2021/12/26 04:46:09;;;;;;;15.47;11.53;;;-4.90;99.90;;;;;;5075457;28;20451;-69
2021/12/26 04:48:37;;;;;;;14.90;10.63;;;-5.10;99.90;;;;;;5075251;28;20458;-69
2021/12/26 04:51:05;;;;;;;18.00;11.77;;;-5.30;99.90;;;;;;5075192;28;20507;-70
2021/12/26 04:53:34;;;;;;;17.30;11.50;;;-5.40;99.90;;;;;;5074376;28;20458;-69
2021/12/26 04:56:01;;;;;;;16.57;11.50;;;-5.40;99.90;;;;;;5074704;28;20489;-69
2021/12/26 04:58:28;;;;;;;16.50;11.67;;;-5.50;99.90;;;;;;5074911;28;20774;-70
2021/12/26 05:00:55;;;;;;;16.07;11.07;;;-5.50;99.90;;;;;;5074641;28;20915;-70
2021/12/26 05:03:22;;;;;;;14.87;10.73;;;-5.50;99.90;;;;;;5074869;28;20462;-69
2021/12/26 05:05:51;;;;;;;24.50;11.03;;;-5.50;99.90;;;;;;5074772;28;20763;-69
2021/12/26 05:08:18;;;;;;;18.70;10.43;;;-5.50;99.90;;;;;;5074673;28;20792;-69
2021/12/26 05:10:46;;;;;;;14.33;11.00;;;-5.60;99.90;;;;;;5074568;28;20515;-69
2021/12/26 05:13:13;;;;;;;16.10;11.17;;;-5.50;99.90;;;;;;5074966;28;20466;-69
2021/12/26 05:15:40;;;;;;;19.40;12.00;;;-5.50;99.90;;;;;;5075041;28;20478;-69
2021/12/26 05:18:08;;;;;;;17.60;11.70;;;-5.50;99.90;;;;;;5074564;28;20453;-69
2021/12/26 05:20:34;;;;;;;13.27;10.23;;;-5.50;99.90;;;;;;5074499;28;20458;-69
2021/12/26 05:23:04;;;;;;;13.13;9.33;;;-5.50;99.90;;;;;;5074537;28;20848;-70
2021/12/26 05:25:30;;;;;;;17.17;10.10;;;-5.50;99.90;;;;;;5074362;28;20493;-68
2021/12/26 05:27:59;;;;;;;11.53;8.87;;;-5.40;99.90;;;;;;5074394;28;20494;-68
2021/12/26 05:30:30;;;;;;;13.80;9.63;;;-5.40;99.90;;;;;;5075087;28;20460;-68
2021/12/26 05:32:57;;;;;;;15.77;9.20;;;-5.40;99.90;;;;;;5075343;28;20442;-68
2021/12/26 05:35:26;;;;;;;13.97;9.87;;;-5.40;99.90;;;;;;5074300;28;20980;-68
2021/12/26 05:37:53;;;;;;;14.80;9.60;;;-5.40;99.90;;;;;;5074943;28;20789;-69
2021/12/26 05:40:20;;;;;;;14.47;9.40;;;-5.30;99.90;;;;;;5075169;28;20459;-68
2021/12/26 05:42:46;;;;;;;11.70;8.70;;;-5.30;99.90;;;;;;5074563;28;20515;-68
2021/12/26 05:45:15;;;;;;;17.73;10.20;;;-5.40;99.90;;;;;;5074461;28;20454;-68
2021/12/26 05:47:42;;;;;;;14.90;9.90;;;-5.30;99.90;;;;;;5075531;28;20553;-69
2021/12/26 05:50:11;;;;;;;14.23;8.47;;;-5.40;99.90;;;;;;5075968;28;20454;-69
2021/12/26 05:52:37;;;;;;;14.63;9.90;;;-5.40;99.90;;;;;;5075038;28;20450;-69
2021/12/26 05:55:05;;;;;;;17.80;10.00;;;-5.50;99.90;;;;;;5075006;28;20960;-69
2021/12/26 05:57:34;;;;;;;12.60;10.10;;;-5.60;99.90;;;;;;5074881;28;20462;-69
2021/12/26 06:00:04;;;;;;;15.47;9.33;;;-5.60;99.90;;;;;;5074131;28;20458;-69
2021/12/26 06:02:32;;;;;;;19.83;10.40;;;-5.70;99.90;;;;;;5074210;28;20807;-69
2021/12/26 06:04:59;;;;;;;14.10;9.33;;;-5.80;99.90;;;;;;5076766;28;20480;-69
2021/12/26 06:07:26;;;;;;;11.90;9.53;;;-5.80;99.90;;;;;;5078260;28;20462;-70
2021/12/26 06:09:53;;;;;;;13.77;9.77;;;-5.80;99.90;;;;;;5078334;28;20462;-69
2021/12/26 06:12:20;;;;;;;16.17;9.60;;;-5.70;99.90;;;;;;5078172;28;20457;-69
2021/12/26 06:14:46;;;;;;;13.10;9.13;;;-5.60;99.90;;;;;;5078074;28;20762;-69
2021/12/26 06:17:13;;;;;;;12.67;9.47;;;-5.60;99.90;;;;;;5077804;28;20453;-69
2021/12/26 06:19:41;;;;;;;14.87;10.00;;;-5.50;99.90;;;;;;5077981;28;20473;-69
2021/12/26 06:22:08;;;;;;;15.23;9.37;;;-5.40;99.90;;;;;;5078201;28;20454;-69
2021/12/26 06:24:35;;;;;;;17.60;10.00;;;-5.40;99.90;;;;;;5078412;28;20455;-69
2021/12/26 06:27:02;;;;;;;13.53;10.07;;;-5.40;99.90;;;;;;5077816;28;20543;-69
2021/12/26 06:29:28;;;;;;;12.93;8.83;;;-5.40;99.90;;;;;;5078147;28;20478;-69
2021/12/26 06:31:57;;;;;;;16.20;9.70;;;-5.40;99.90;;;;;;5078261;28;20938;-69
2021/12/26 06:34:24;;;;;;;14.10;9.57;;;-5.40;99.90;;;;;;5078487;28;20521;-69
2021/12/26 06:36:52;;;;;;;14.20;9.97;;;-5.40;99.90;;;;;;5078730;28;20470;-69
2021/12/26 06:39:19;;;;;;;12.63;8.10;;;-5.40;99.90;;;;;;5079094;28;20491;-69
2021/12/26 06:41:46;;;;;;;19.07;9.73;;;-5.40;99.90;;;;;;5079810;28;20928;-69
2021/12/26 06:44:12;;;;;;;12.73;8.90;;;-5.40;99.90;;;;;;5080493;28;20454;-69
2021/12/26 06:46:40;;;;;;;12.77;9.00;;;-5.30;99.90;;;;;;5081652;28;20735;-68
2021/12/26 06:49:07;;;;;;;12.20;7.67;;;-5.40;99.90;;;;;;5080701;28;20756;-68
2021/12/26 06:51:34;;;;;;;12.57;8.87;;;-5.40;99.90;;;;;;5078339;28;20513;-69
2021/12/26 06:54:02;;;;;;;10.17;7.43;;;-5.40;99.90;;;;;;5077302;28;20458;-69
2021/12/26 06:56:30;;;;;;;12.50;9.40;;;-5.40;99.90;;;;;;5077437;28;20759;-69
2021/12/26 06:58:57;;;;;;;15.00;7.70;;;-5.40;99.90;;;;;;5077238;28;20918;-69
2021/12/26 07:01:23;;;;;;;13.37;8.23;;;-5.40;99.90;;;;;;5077900;28;20454;-69
2021/12/26 07:03:54;;;;;;;15.17;8.83;;;-5.40;99.90;;;;;;5077148;28;20462;-69
2021/12/26 07:06:21;;;;;;;18.17;9.33;;;-5.40;99.90;;;;;;5077780;28;20447;-69
2021/12/26 07:08:47;;;;;;;13.63;8.73;;;-5.40;99.90;;;;;;5077756;28;20524;-69
2021/12/26 07:11:17;;;;;;;15.50;8.40;;;-5.40;99.90;;;;;;5076677;28;20898;-69
2021/12/26 07:13:45;;;;;;;11.20;8.50;;;-5.40;99.90;;;;;;5077021;28;20454;-70
2021/12/26 07:16:12;;;;;;;11.10;8.63;;;-5.40;99.90;;;;;;5076287;28;20492;-71
2021/12/26 07:18:39;;;;;;;9.43;8.37;;;-5.50;99.90;;;;;;5077024;28;20470;-68
2021/12/26 07:21:05;;;;;;;13.63;9.00;;;-5.50;99.90;;;;;;5076856;28;20494;-69
2021/12/26 07:23:32;;;;;;;18.60;10.00;;;-5.40;99.90;;;;;;5076561;28;20553;-70
2021/12/26 07:25:59;;;;;;;13.20;8.90;;;-5.40;99.90;;;;;;5076469;28;20492;-68
2021/12/26 07:28:27;;;;;;;17.67;9.20;;;-5.50;99.90;;;;;;5076595;28;20879;-69
2021/12/26 07:30:54;;;;;;;13.67;8.53;;;-5.40;99.90;;;;;;5076473;28;20458;-68
2021/12/26 07:33:21;;;;;;;11.70;8.30;;;-5.50;99.90;;;;;;5076366;28;20458;-69
2021/12/26 07:35:48;;;;;;;10.37;6.83;;;-5.50;99.90;;;;;;5076144;28;20478;-69
2021/12/26 07:38:14;;;;;;;16.00;9.50;;;-5.50;99.90;;;;;;5076268;28;20446;-69
2021/12/26 07:40:41;;;;;;;12.20;8.13;;;-5.50;99.90;;;;;;5076322;28;20458;-69
2021/12/26 07:43:08;;;;;;;10.33;8.27;;;-5.40;99.90;;;;;;5076318;28;20541;-69
2021/12/26 07:45:36;;;;;;;15.97;7.87;;;-5.40;99.90;;;;;;5076524;28;20462;-68
2021/12/26 07:48:03;;;;;;;14.00;8.33;;;-5.50;99.90;;;;;;5075833;28;20535;-69
2021/12/26 07:50:32;;;;;;;11.10;9.23;;;-5.60;99.90;;;;;;5075981;28;20470;-69
2021/12/26 07:53:04;;;;;;;13.90;9.70;;;-5.80;99.90;;;;;;5076035;28;20458;-69
2021/12/26 07:55:31;;;;;;;10.80;9.10;;;-5.80;99.90;;;;;;5076033;28;20804;-69
2021/12/26 07:57:58;;;;;;;12.43;9.30;;;-5.80;99.90;;;;;;5076068;28;20918;-70
2021/12/26 08:00:26;;;;;;;15.70;9.27;;;-5.70;99.90;;;;;;5075609;28;20492;-69
2021/12/26 08:02:55;;;;;;;13.50;9.13;;;-5.70;99.90;;;;;;5076109;28;20469;-69
2021/12/26 08:05:22;;;;;;;12.60;9.50;;;-5.60;99.90;;;;;;5075587;28;20523;-69
2021/12/26 08:07:49;;;;;;;12.77;9.53;;;-5.60;99.90;;;;;;5076268;28;20486;-69
2021/12/26 08:10:15;;;;;;;15.70;9.60;;;-5.60;99.90;;;;;;5076093;28;20789;-68
2021/12/26 08:12:42;;;;;;;12.90;9.23;;;-5.50;99.90;;;;;;5075767;28;20465;-69
2021/12/26 08:15:10;;;;;;;11.73;8.20;;;-5.40;99.90;;;;;;5075944;28;20466;-70
2021/12/26 08:17:38;;;;;;;12.73;8.90;;;-5.30;99.90;;;;;;5075989;28;20450;-69
2021/12/26 08:20:08;;;;;;;15.40;9.77;;;-5.30;99.90;;;;;;5075797;28;20504;-69
2021/12/26 08:22:35;;;;;;;13.70;9.20;;;-5.20;99.90;;;;;;5077167;28;20844;-69
2021/12/26 08:25:01;;;;;;;12.67;7.77;;;-5.20;99.90;;;;;;5078060;28;20900;-69
2021/12/26 08:27:28;;;;;;;9.97;8.33;;;-5.20;99.90;;;;;;5076084;28;20505;-69
2021/12/26 08:29:55;;;;;;;12.53;8.60;;;-5.20;99.90;;;;;;5075876;28;20462;-69
2021/12/26 08:32:22;;;;;;;13.23;8.97;;;-5.10;99.90;;;;;;5076411;28;20472;-69
2021/12/26 08:34:48;;;;;;;13.30;9.63;;;-5.10;99.90;;;;;;5076512;28;20488;-68
2021/12/26 08:37:17;;;;;;;16.47;9.80;;;-5.10;99.90;;;;;;5077162;28;20485;-69
2021/12/26 08:39:46;;;;;;;12.60;8.60;;;-5.10;99.90;;;;;;5077609;28;20459;-69
2021/12/26 08:42:14;;;;;;;14.10;9.20;;;-5.10;99.90;;;;;;5079496;28;20467;-69
2021/12/26 08:44:42;;;;;;;15.73;10.93;;;-5.10;99.90;;;;;;5082796;28;20480;-69
2021/12/26 08:47:10;;;;;;;15.20;10.00;;;-5.00;99.90;;;;;;5083455;28;20454;-70
2021/12/26 08:49:37;;;;;;;13.30;9.30;;;-5.00;99.90;;;;;;5085034;28;20447;-69
2021/12/26 08:52:06;;;;;;;13.60;9.40;;;-4.90;99.90;;;;;;5081807;28;20473;-69
2021/12/26 08:54:34;;;;;;;12.50;9.80;;;-4.90;99.90;;;;;;5076163;28;20906;-69
2021/12/26 08:57:01;;;;;;;12.60;8.57;;;-4.90;99.90;;;;;;5078491;28;20482;-69
2021/12/26 08:59:30;;;;;;;15.53;9.60;;;-4.90;99.90;;;;;;5076305;28;20462;-69
2021/12/26 09:01:58;;;;;;;18.67;10.83;;;-4.90;99.90;;;;;;5075325;28;20478;-69
2021/12/26 09:04:26;;;;;;;15.70;9.73;;;-4.80;99.90;;;;;;5075147;28;20450;-69
2021/12/26 09:06:52;;;;;;;15.77;10.53;;;-4.80;99.90;;;;;;5075097;28;20481;-69
2021/12/26 09:09:19;;;;;;;13.27;10.13;;;-4.70;99.90;;;;;;5075359;28;20511;-70
2021/12/26 09:11:48;;;;;;;20.20;11.10;;;-4.60;99.90;;;;;;5075147;28;20454;-70
2021/12/26 09:14:15;;;;;;;16.93;11.37;;;-4.60;99.90;;;;;;5075157;28;20458;-69
2021/12/26 09:16:42;;;;;;;13.07;9.50;;;-4.50;99.90;;;;;;5074748;28;20478;-68
2021/12/26 09:19:09;;;;;;;14.80;9.97;;;-4.40;99.90;;;;;;5074872;28;20454;-70
2021/12/26 09:21:36;;;;;;;14.27;9.17;;;-4.40;99.90;;;;;;5074472;28;20458;-70
2021/12/26 09:24:08;;;;;;;17.50;9.90;;;-4.30;99.90;;;;;;5074388;28;20919;-69
2021/12/26 09:26:35;;;;;;;17.73;9.53;;;-4.20;99.90;;;;;;5074391;28;20491;-70
2021/12/26 09:29:03;;;;;;;13.57;9.43;;;-4.10;99.90;;;;;;5074490;28;20465;-69
2021/12/26 09:31:30;;;;;;;13.67;9.67;;;-4.10;99.90;;;;;;5074830;28;20462;-70
2021/12/26 09:33:57;;;;;;;15.37;10.70;;;-4.00;99.90;;;;;;5074681;28;20775;-70
2021/12/26 09:36:25;;;;;;;16.13;11.50;;;-4.00;99.90;;;;;;5074750;28;20485;-69
2021/12/26 09:38:52;;;;;;;20.70;11.70;;;-4.00;99.90;;;;;;5074664;28;20589;-70
2021/12/26 09:41:19;;;;;;;19.57;12.93;;;-3.90;99.90;;;;;;5074495;28;20466;-70
2021/12/26 09:43:45;;;;;;;20.73;13.90;;;-3.90;99.90;;;;;;5074637;28;20465;-69
2021/12/26 09:46:14;;;;;;;24.43;14.70;;;-3.80;99.90;;;;;;5074704;28;20458;-70
2021/12/26 09:48:41;;;;;;;20.03;13.40;;;-3.80;99.90;;;;;;5074545;28;20552;-69
2021/12/26 09:51:08;;;;;;;24.07;14.13;;;-3.80;99.90;;;;;;5074636;28;20457;-69
2021/12/26 09:53:39;;;;;;;23.33;13.63;;;-3.70;99.90;;;;;;5074261;28;20464;-69
2021/12/26 09:56:07;;;;;;;19.57;13.10;;;-3.60;99.90;;;;;;5073983;28;20465;-69
2021/12/26 09:58:34;;;;;;;22.83;14.37;;;-3.60;99.90;;;;;;5074804;28;20454;-70
2021/12/26 10:01:00;;;;;;;21.70;14.10;;;-3.60;99.90;;;;;;5073885;28;20457;-68
2021/12/26 10:03:33;;;;;;;19.57;13.33;;;-3.50;99.90;;;;;;5074377;28;20468;-69
2021/12/26 10:06:12;;;;;;;23.70;14.40;;;-3.50;99.90;;;;;;5074194;28;20887;-69
2021/12/26 10:08:54;;;;;;;20.17;14.47;;;-3.40;99.90;;;;;;5074496;28;20613;-70
2021/12/26 10:11:22;;;;;;;20.20;13.73;;;-3.30;99.90;;;;;;5074464;28;20466;-70
2021/12/26 10:13:51;;;;;;;19.93;12.90;;;-3.30;99.90;;;;;;5074404;28;20533;-69
2021/12/26 10:16:21;;;;;;;13.90;10.43;;;-3.30;99.90;;;;;;5074549;28;20503;-69
2021/12/26 10:18:50;;;;;;;15.57;11.47;;;-3.20;99.90;;;;;;5074098;28;20460;-70
2021/12/26 10:21:33;;;;;;;19.30;11.70;;;-3.20;99.90;;;;;;5074875;28;20464;-69
2021/12/26 10:24:03;;;;;;;14.40;11.17;;;-3.10;99.90;;;;;;5075007;28;20453;-68
2021/12/26 10:26:33;;;;;;;16.13;10.00;;;-3.00;99.90;;;;;;5075036;28;20489;-69
2021/12/26 10:29:25;;;;;;;19.73;10.87;;;-2.90;99.90;;;;;;5074104;28;20487;-70
2021/12/26 10:31:58;;;;;;;13.40;9.33;;;-2.80;99.90;;;;;;5059922;28;20469;-69
2021/12/26 10:34:32;;;;;;;13.77;8.80;;;-2.80;99.90;;;;;;5074169;28;20458;-70
2021/12/26 10:37:03;;;;;;;15.27;10.50;;;-2.70;99.90;;;;;;5073873;28;20465;-69
2021/12/26 10:39:33;;;;;;;14.23;10.90;;;-2.60;99.90;;;;;;5074236;28;20457;-69
2021/12/26 10:42:02;;;;;;;19.77;11.43;;;-2.60;99.90;;;;;;5074051;28;20457;-69
2021/12/26 10:44:33;;;;;;;15.23;11.17;;;-2.50;99.90;;;;;;5074392;28;20774;-70
2021/12/26 10:47:05;;;;;;;18.30;10.23;;;-2.40;99.90;;;;;;5073940;28;20441;-70
2021/12/26 10:49:37;;;;;;;16.53;10.50;;;-2.40;99.90;;;;;;5074006;28;20480;-71
2021/12/26 10:52:12;;;;;;;12.70;8.80;;;-2.30;99.90;;;;;;5076556;28;20763;-70
2021/12/26 10:54:41;;;;;;;15.10;10.67;;;-2.20;99.90;;;;;;5077511;28;20579;-69
2021/12/26 10:57:13;;;;;;;13.57;8.80;;;-2.20;99.90;;;;;;5077560;28;20482;-69
2021/12/26 10:59:42;;;;;;;13.40;9.43;;;-2.10;99.90;;;;;;5078269;28;20442;-69
2021/12/26 11:02:09;;;;;;;14.53;8.10;;;-2.10;99.90;;;;;;5077095;28;20519;-70
2021/12/26 11:04:38;;;;;;;15.03;9.20;;;-2.00;99.90;;;;;;5077207;28;20450;-70
2021/12/26 11:07:10;;;;;;;12.03;8.40;;;-2.00;99.90;;;;;;5077569;28;20457;-70
2021/12/26 11:09:37;;;;;;;13.20;7.80;;;-2.00;99.90;;;;;;5077553;28;20443;-70
2021/12/26 11:12:08;;;;;;;9.33;7.33;;;-1.90;99.90;;;;;;5077226;28;20458;-70
2021/12/26 11:14:58;;;;;;;9.10;7.50;;;-1.90;99.90;;;;;;5077145;28;20473;-70
2021/12/26 11:17:29;;;;;;;13.33;8.20;;;-1.90;99.90;;;;;;5077190;28;20477;-70
2021/12/26 11:19:57;;;;;;;10.83;7.70;;;-1.80;99.90;;;;;;5077234;28;20533;-69
2021/12/26 11:22:24;;;;;;;10.63;6.97;;;-1.80;99.90;;;;;;5076611;28;20890;-69
2021/12/26 11:24:53;;;;;;;10.30;6.93;;;-1.70;99.90;;;;;;5076754;28;20918;-70
2021/12/26 11:27:21;;;;;;;9.07;6.73;;;-1.70;99.90;;;;;;5076773;28;20474;-70
2021/12/26 11:29:48;;;;;;;9.57;6.30;;;-1.60;99.90;;;;;;5076799;28;21018;-70
2021/12/26 11:32:16;;;;;;;10.70;5.73;;;-1.50;99.90;;;;;;5076704;28;20840;-70
2021/12/26 11:34:45;;;;;;;9.60;6.07;;;-1.50;99.90;;;;;;5076306;28;20450;-69
2021/12/26 11:37:13;;;;;;;10.93;6.73;;;-1.40;99.90;;;;;;5076469;28;20962;-68
2021/12/26 11:39:41;;;;;;;9.90;6.50;;;-1.30;99.90;;;;;;5077129;28;20458;-70
2021/12/26 11:42:29;;;;;;;10.90;7.30;;;-1.30;99.90;;;;;;5076624;28;20481;-70
2021/12/26 11:45:10;;;;;;;9.07;6.30;;;-1.20;99.90;;;;;;5077096;28;20450;-69
2021/12/26 11:48:20;;;;;;;7.70;6.40;;;-1.10;99.90;;;;;;5077072;28;20724;-69
2021/12/26 11:51:02;;;;;;;9.33;6.00;;;-1.00;99.90;;;;;;5077440;28;20453;-69
2021/12/26 11:53:51;;;;;;;8.40;6.00;;;-0.90;99.90;;;;;;5078716;28;20450;-70
2021/12/26 11:56:26;;;;;;;9.33;5.60;;;-0.90;99.90;;;;;;5080184;28;20511;-67
2021/12/26 11:59:11;;;;;;;11.93;6.87;;;-0.80;99.90;;;;;;5076794;28;20511;-70
2021/12/26 12:01:43;;;;;;;9.80;6.60;;;-0.70;99.90;;;;;;5076917;28;20472;-69
2021/12/26 12:04:15;;;;;;;10.20;5.47;;;-0.50;99.90;;;;;;5076457;28;20442;-69
2021/12/26 12:06:45;;;;;;;10.47;5.83;;;-0.30;99.90;;;;;;5075595;28;20454;-69
2021/12/26 12:09:29;;;;;;;7.63;5.20;;;0.40;99.90;;;;;;5076324;28;20991;-69
2021/12/26 12:12:05;;;;;;;8.03;5.20;;;1.90;99.90;;;;;;5076094;28;20450;-70
2021/12/26 12:14:54;;;;;;;8.60;5.10;;;3.60;99.90;;;;;;5076068;28;20470;-70
2021/12/26 12:17:25;;;;;;;6.97;4.60;;;5.40;99.90;;;;;;5075368;28;20558;-71
2021/12/26 12:20:15;;;;;;;4.40;3.67;;;7.00;96.20;;;;;;5075834;28;20457;-70
2021/12/26 12:23:13;;;;;;;6.17;3.73;;;8.60;85.00;;;;;;5075754;28;20458;-70
2021/12/26 12:25:50;;;;;;;5.87;3.80;;;9.90;69.40;;;;;;5075536;28;20481;-70
2021/12/26 12:28:19;;;;;;;7.73;4.33;;;11.00;57.70;;;;;;5075317;28;20435;-70
2021/12/26 12:30:48;;;;;;;6.67;4.50;;;11.70;49.80;;;;;;5075737;28;20465;-71
2021/12/26 12:33:18;;;;;;;9.07;4.40;;;12.10;46.40;;;;;;5075764;28;20561;-70
2021/12/26 12:35:54;;;;;;;5.00;3.87;;;12.50;45.10;;;;;;5075454;28;20462;-70
2021/12/26 12:38:23;;;;;;;5.47;3.63;;;13.10;43.90;;;;;;5075517;28;20759;-70
2021/12/26 12:40:58;;;;;;;5.80;4.20;;;12.90;38.20;;;;;;5075444;28;20468;-70
2021/12/26 12:43:26;;;;;;;7.17;4.20;;;13.30;37.30;;;;;;5075178;28;20438;-70